Time;durP1;ratioP1;P1;durP2;ratioP2;P2;SDS_P1;SDS_P2;PMS_P1;PMS_P2;Temp;Humidity;BMP_temperature;BMP_pressure;BME280_temperature;BME280_humidity;BME280_pressure;Samples;Min_cycle;Max_cycle;Signal;HPM_P1;HPM_P2
2022/07/07 00:01:59;;;;;;;5.95;3.80;;;;;;;23.20;42.61;99533.06;5115313;27;20047;-63
2022/07/07 00:04:26;;;;;;;5.47;3.70;;;;;;;23.18;42.64;99537.63;5115283;27;20089;-63
2022/07/07 00:06:53;;;;;;;5.35;3.70;;;;;;;23.18;42.75;99535.81;5133304;27;20466;-63
2022/07/07 00:09:20;;;;;;;4.90;3.50;;;;;;;23.15;42.74;99532.47;5153082;27;20043;-63
2022/07/07 00:11:47;;;;;;;5.22;3.60;;;;;;;23.14;42.35;99538.72;5148343;27;20405;-63
2022/07/07 00:14:14;;;;;;;6.15;3.53;;;;;;;23.13;42.73;99539.69;5153468;27;20095;-63
2022/07/07 00:16:42;;;;;;;5.25;3.55;;;;;;;23.11;42.93;99542.41;5154100;27;20047;-62
2022/07/07 00:19:08;;;;;;;5.10;3.50;;;;;;;23.10;42.49;99542.47;5153837;27;20121;-63
2022/07/07 00:21:35;;;;;;;5.28;3.42;;;;;;;23.10;42.79;99539.81;5147270;27;20035;-63
2022/07/07 00:24:02;;;;;;;5.30;3.30;;;;;;;23.08;42.36;99539.06;5132884;27;20607;-63
2022/07/07 00:26:30;;;;;;;4.53;3.25;;;;;;;23.06;42.37;99536.47;5132828;27;20533;-63
2022/07/07 00:28:56;;;;;;;4.15;3.17;;;;;;;23.04;41.97;99529.53;5133089;27;20051;-64
2022/07/07 00:31:23;;;;;;;3.95;3.00;;;;;;;23.03;41.73;99535.78;5132994;27;20096;-63
2022/07/07 00:33:52;;;;;;;5.97;3.20;;;;;;;23.00;42.35;99532.31;5133148;27;20131;-63
2022/07/07 00:36:19;;;;;;;5.72;3.30;;;;;;;22.99;41.98;99530.59;5147151;27;20079;-63
2022/07/07 00:38:45;;;;;;;6.35;3.28;;;;;;;22.97;41.89;99529.81;5153767;27;20057;-63
2022/07/07 00:41:12;;;;;;;5.50;3.45;;;;;;;22.96;41.91;99527.25;5134795;27;20484;-63
2022/07/07 00:43:40;;;;;;;5.13;3.30;;;;;;;22.95;42.13;99526.38;5153185;27;20484;-63
2022/07/07 00:46:07;;;;;;;5.95;3.30;;;;;;;22.96;42.13;99525.44;5153669;27;20086;-63
2022/07/07 00:48:36;;;;;;;5.43;3.20;;;;;;;22.95;42.18;99534.38;5150831;27;20514;-63
2022/07/07 00:51:05;;;;;;;6.68;3.20;;;;;;;22.96;42.08;99525.44;5132714;27;20481;-63
2022/07/07 00:53:32;;;;;;;6.68;3.50;;;;;;;22.96;42.18;99528.09;5132735;27;20111;-63
2022/07/07 00:55:59;;;;;;;8.40;3.33;;;;;;;22.93;42.14;99522.94;5132509;27;20099;-63
2022/07/07 00:58:26;;;;;;;4.90;3.50;;;;;;;22.79;42.26;99520.16;5114475;27;20138;-62
2022/07/07 01:00:52;;;;;;;5.57;3.50;;;;;;;22.66;42.67;99527.88;5132351;27;20085;-63
2022/07/07 01:03:19;;;;;;;5.53;3.00;;;;;;;22.78;42.67;99523.75;5132638;27;20095;-63
2022/07/07 01:05:47;;;;;;;4.25;3.20;;;;;;;22.79;42.50;99522.78;5132292;27;20092;-63
2022/07/07 01:08:15;;;;;;;6.32;3.83;;;;;;;22.83;42.39;99526.16;5152797;27;20042;-63
2022/07/07 01:10:43;;;;;;;4.75;3.45;;;;;;;22.83;42.47;99515.53;5153056;27;20043;-63
2022/07/07 01:13:10;;;;;;;4.57;3.40;;;;;;;22.83;42.43;99523.50;5153408;27;20042;-63
2022/07/07 01:15:38;;;;;;;5.50;3.35;;;;;;;22.83;42.71;99519.03;5134979;27;20046;-63
2022/07/07 01:18:06;;;;;;;6.30;3.50;;;;;;;22.85;42.49;99519.81;5153173;27;20050;-63
2022/07/07 01:20:32;;;;;;;8.73;3.70;;;;;;;22.83;42.32;99516.38;5151769;27;20086;-63
2022/07/07 01:23:01;;;;;;;6.07;3.38;;;;;;;22.81;42.45;99507.63;5152795;27;20042;-63
2022/07/07 01:25:28;;;;;;;6.93;3.50;;;;;;;22.80;42.37;99504.13;5153420;27;20095;-63
2022/07/07 01:27:54;;;;;;;4.57;3.10;;;;;;;22.79;42.49;99513.03;5146081;27;20115;-63
2022/07/07 01:30:21;;;;;;;6.57;3.40;;;;;;;22.77;42.67;99506.09;5132148;28;20553;-63
2022/07/07 01:32:48;;;;;;;6.05;3.40;;;;;;;22.80;42.56;99503.28;5132524;27;20078;-63
2022/07/07 01:35:15;;;;;;;4.78;3.30;;;;;;;22.79;42.46;99507.72;5148233;27;20047;-63
2022/07/07 01:37:42;;;;;;;5.47;3.45;;;;;;;22.78;42.47;99506.00;5152879;27;20042;-63
2022/07/07 01:40:10;;;;;;;4.53;3.35;;;;;;;22.78;42.32;99502.50;5152593;27;20098;-63
2022/07/07 01:42:37;;;;;;;4.95;3.45;;;;;;;22.79;42.34;99501.53;5152681;27;20054;-63
2022/07/07 01:45:06;;;;;;;4.60;3.08;;;;;;;22.79;41.98;99507.72;5152889;27;20070;-63
2022/07/07 01:47:33;;;;;;;4.72;3.30;;;;;;;22.79;42.17;99501.53;5149435;27;20047;-63
2022/07/07 01:50:00;;;;;;;4.40;3.10;;;;;;;22.78;42.18;99502.50;5131914;28;20072;-63
2022/07/07 01:52:26;;;;;;;4.68;3.10;;;;;;;22.77;42.26;99503.44;5131929;28;20139;-62
2022/07/07 01:54:53;;;;;;;6.82;3.05;;;;;;;22.80;42.07;99503.28;5132032;28;20043;-63
2022/07/07 01:57:21;;;;;;;7.55;3.50;;;;;;;22.78;42.40;99510.47;5113819;28;20047;-63
2022/07/07 01:59:48;;;;;;;4.93;3.30;;;;;;;22.79;42.50;99507.72;5133023;27;20047;-62
2022/07/07 02:02:15;;;;;;;5.22;3.30;;;;;;;22.79;42.44;99507.72;5133238;27;20499;-63
2022/07/07 02:04:42;;;;;;;5.25;3.35;;;;;;;22.78;41.90;99511.31;5131879;28;20063;-63
2022/07/07 02:07:08;;;;;;;4.68;3.17;;;;;;;22.76;42.03;99504.34;5136972;27;20505;-63
2022/07/07 02:09:35;;;;;;;4.80;3.33;;;;;;;22.72;42.16;99498.38;5152562;27;20123;-63
2022/07/07 02:12:02;;;;;;;4.80;3.00;;;;;;;22.76;42.34;99501.69;5151990;27;20091;-63
2022/07/07 02:14:30;;;;;;;5.63;3.35;;;;;;;22.76;42.16;99499.91;5148924;27;20074;-63
2022/07/07 02:16:57;;;;;;;4.63;3.20;;;;;;;22.76;42.08;99502.56;5133817;27;20039;-62
2022/07/07 02:19:24;;;;;;;4.68;3.10;;;;;;;22.74;42.28;99498.25;5155603;27;20472;-63
2022/07/07 02:21:50;;;;;;;9.73;3.55;;;;;;;22.72;41.96;99500.13;5153613;27;20035;-63
2022/07/07 02:24:17;;;;;;;5.65;3.13;;;;;;;22.69;42.20;99501.16;5155596;27;20047;-63
2022/07/07 02:26:44;;;;;;;3.95;3.10;;;;;;;22.67;42.16;99502.19;5137465;27;20043;-63
2022/07/07 02:29:11;;;;;;;4.82;3.05;;;;;;;22.67;42.25;99503.03;5134184;27;20051;-64
2022/07/07 02:31:39;;;;;;;3.83;3.15;;;;;;;22.67;42.26;99499.53;5155929;27;20173;-63
2022/07/07 02:34:06;;;;;;;6.10;3.47;;;;;;;22.65;42.03;99499.59;5154641;27;20457;-62
2022/07/07 02:36:33;;;;;;;6.50;3.38;;;;;;;22.63;42.01;99495.31;5155257;27;20420;-63
2022/07/07 02:39:00;;;;;;;6.32;3.35;;;;;;;22.63;42.07;99498.84;5155418;27;20047;-63
2022/07/07 02:41:27;;;;;;;5.60;3.55;;;;;;;22.61;42.36;99496.25;5155666;27;20043;-63
2022/07/07 02:43:53;;;;;;;4.47;2.92;;;;;;;22.58;42.23;99498.19;5154790;27;20070;-63
2022/07/07 02:46:21;;;;;;;4.53;3.10;;;;;;;22.58;42.29;99498.19;5123682;27;20075;-62
2022/07/07 02:48:51;;;;;;;4.70;3.03;;;;;;;22.57;42.13;99492.03;5142554;27;20609;-62
2022/07/07 02:51:17;;;;;;;5.35;3.40;;;;;;;22.57;42.02;99491.19;5155622;27;20047;-63
2022/07/07 02:53:44;;;;;;;4.43;3.10;;;;;;;22.56;42.16;99490.31;5154598;27;20043;-63
2022/07/07 02:56:11;;;;;;;4.47;3.05;;;;;;;22.54;42.13;99486.88;5154254;27;20038;-63
2022/07/07 02:58:38;;;;;;;4.97;3.13;;;;;;;22.56;42.09;99497.41;5132642;27;20043;-63
2022/07/07 03:01:05;;;;;;;4.68;3.17;;;;;;;22.53;42.26;99493.13;5154233;27;20122;-62
2022/07/07 03:03:32;;;;;;;5.80;2.92;;;;;;;22.54;42.31;99491.34;5154096;27;20039;-62
2022/07/07 03:06:00;;;;;;;4.10;3.17;;;;;;;22.52;42.31;99491.41;5154232;27;20070;-63
2022/07/07 03:08:27;;;;;;;5.07;2.97;;;;;;;22.49;42.06;99496.88;5133744;27;20138;-62
2022/07/07 03:10:54;;;;;;;4.97;3.25;;;;;;;22.48;42.13;99497.81;5152320;27;20126;-63
2022/07/07 03:13:21;;;;;;;5.43;3.53;;;;;;;22.51;42.40;99502.97;5143216;27;20174;-62
2022/07/07 03:15:48;;;;;;;5.25;3.05;;;;;;;22.50;42.28;99495.09;5134499;27;20042;-63
2022/07/07 03:18:14;;;;;;;4.18;3.00;;;;;;;22.47;42.11;99498.75;5135720;27;20077;-62
2022/07/07 03:20:41;;;;;;;5.60;3.05;;;;;;;22.45;42.17;99503.28;5135608;27;20038;-63
2022/07/07 03:23:10;;;;;;;6.10;3.20;;;;;;;22.43;42.30;99510.47;5153864;27;20053;-63
2022/07/07 03:25:37;;;;;;;4.95;2.80;;;;;;;22.40;42.41;99510.63;5154491;27;20087;-62
2022/07/07 03:28:04;;;;;;;4.13;3.00;;;;;;;22.38;42.48;99517.81;5153382;27;20160;-62
2022/07/07 03:30:31;;;;;;;4.82;3.00;;;;;;;22.37;42.50;99513.41;5154621;27;20630;-62
2022/07/07 03:32:58;;;;;;;5.03;2.90;;;;;;;22.35;42.55;99516.19;5155318;27;20089;-63
2022/07/07 03:35:25;;;;;;;4.85;3.20;;;;;;;22.33;42.58;99525.13;5153944;27;20138;-63
2022/07/07 03:37:52;;;;;;;6.72;3.13;;;;;;;22.32;42.58;99523.44;5151537;27;20061;-63
2022/07/07 03:40:20;;;;;;;4.57;2.88;;;;;;;22.32;42.42;99515.47;5132036;27;20194;-63
2022/07/07 03:42:47;;;;;;;4.70;3.00;;;;;;;22.28;42.57;99520.06;5154587;27;20047;-63
2022/07/07 03:45:14;;;;;;;6.45;3.03;;;;;;;22.27;42.55;99520.97;5150811;27;20133;-63
2022/07/07 03:47:41;;;;;;;4.50;2.90;;;;;;;22.26;42.51;99507.81;5133916;27;20049;-63
2022/07/07 03:50:08;;;;;;;4.78;2.97;;;;;;;22.26;42.45;99513.13;5115117;27;20082;-63
2022/07/07 03:52:35;;;;;;;5.72;2.90;;;;;;;22.28;42.39;99511.25;5136641;27;20446;-63
2022/07/07 03:55:02;;;;;;;5.55;3.30;;;;;;;22.25;42.36;99511.38;5135855;27;20091;-62
2022/07/07 03:57:30;;;;;;;6.60;3.00;;;;;;;22.28;42.39;99513.91;5154298;27;20096;-63
2022/07/07 03:59:57;;;;;;;5.68;3.25;;;;;;;22.27;42.35;99509.50;5153467;27;20095;-62
2022/07/07 04:02:24;;;;;;;5.18;3.17;;;;;;;22.23;42.58;99509.63;5153890;27;20042;-62
2022/07/07 04:04:51;;;;;;;4.28;3.13;;;;;;;22.25;42.40;99511.38;5134427;27;20517;-62
2022/07/07 04:07:17;;;;;;;6.15;3.03;;;;;;;22.23;42.41;99512.28;5133334;27;20478;-63
2022/07/07 04:09:44;;;;;;;5.97;3.10;;;;;;;22.22;42.57;99510.56;5133758;27;20039;-63
2022/07/07 04:12:12;;;;;;;4.88;2.83;;;;;;;22.21;42.49;99510.66;5115232;27;20087;-62
2022/07/07 04:14:40;;;;;;;5.30;2.97;;;;;;;22.21;42.30;99505.34;5133131;27;20047;-63
2022/07/07 04:17:07;;;;;;;4.18;2.95;;;;;;;22.20;42.20;99496.53;5133035;27;20043;-62
2022/07/07 04:19:34;;;;;;;7.72;3.20;;;;;;;22.23;42.17;99498.16;5119984;27;20039;-62
2022/07/07 04:22:00;;;;;;;4.35;3.00;;;;;;;22.22;42.33;99501.75;5154108;27;20096;-62
2022/07/07 04:24:27;;;;;;;4.60;3.10;;;;;;;22.22;42.41;99493.81;5136193;27;20078;-62
2022/07/07 04:26:55;;;;;;;4.97;3.10;;;;;;;22.22;42.59;99502.63;5133057;27;20039;-62
2022/07/07 04:29:22;;;;;;;6.72;3.35;;;;;;;22.22;42.58;99499.97;5141610;27;20099;-62
2022/07/07 04:31:50;;;;;;;8.45;3.28;;;;;;;22.26;42.40;99505.16;5153649;27;20476;-63
2022/07/07 04:34:17;;;;;;;5.65;2.90;;;;;;;22.26;42.45;99497.19;5153521;27;20054;-62
2022/07/07 04:36:44;;;;;;;5.15;3.00;;;;;;;22.28;42.37;99495.31;5153538;27;20480;-62
2022/07/07 04:39:11;;;;;;;12.38;3.38;;;;;;;22.29;42.36;99502.34;5134925;27;20046;-62
2022/07/07 04:41:37;;;;;;;6.03;3.10;;;;;;;22.31;42.53;99508.41;5153204;27;20142;-63
2022/07/07 04:44:05;;;;;;;6.70;3.15;;;;;;;22.33;42.38;99520.69;5135848;27;20446;-63
2022/07/07 04:46:32;;;;;;;6.63;3.15;;;;;;;22.36;42.29;99509.06;5132511;27;20051;-63
2022/07/07 04:49:02;;;;;;;5.28;2.95;;;;;;;22.39;42.17;99511.53;5114366;27;20079;-63
2022/07/07 04:51:29;;;;;;;5.82;3.00;;;;;;;22.41;42.14;99510.56;5132612;27;20078;-63
2022/07/07 04:53:56;;;;;;;5.43;3.03;;;;;;;22.42;41.93;99512.25;5132626;27;20059;-62
2022/07/07 04:56:23;;;;;;;5.05;2.92;;;;;;;22.43;41.71;99507.81;5120165;27;20039;-63
2022/07/07 04:58:50;;;;;;;4.32;3.00;;;;;;;22.44;42.02;99512.19;5118385;27;20042;-63
2022/07/07 05:01:16;;;;;;;4.50;3.13;;;;;;;22.39;42.09;99516.84;5153261;27;20042;-62
2022/07/07 05:03:43;;;;;;;6.07;3.40;;;;;;;22.44;42.09;99512.19;5152900;27;20427;-63
2022/07/07 05:06:11;;;;;;;5.28;3.00;;;;;;;22.46;42.12;99515.63;5155416;27;20078;-63
2022/07/07 05:08:38;;;;;;;4.50;2.88;;;;;;;22.47;41.66;99512.03;5153563;27;20049;-63
2022/07/07 05:11:05;;;;;;;4.65;3.00;;;;;;;22.51;41.56;99513.59;5153482;27;20043;-62
2022/07/07 05:13:32;;;;;;;5.00;3.08;;;;;;;22.50;41.56;99517.19;5153614;27;20107;-62
2022/07/07 05:15:59;;;;;;;4.95;3.00;;;;;;;22.53;41.50;99510.88;5152630;27;20099;-63
2022/07/07 05:18:26;;;;;;;5.65;3.10;;;;;;;22.53;41.70;99511.72;5133458;27;20047;-63
2022/07/07 05:20:52;;;;;;;3.63;2.80;;;;;;;22.57;41.76;99518.59;5152705;27;20073;-62
2022/07/07 05:23:21;;;;;;;6.40;3.20;;;;;;;22.62;41.71;99518.34;5134476;27;20112;-63
2022/07/07 05:25:48;;;;;;;5.10;3.17;;;;;;;22.63;41.81;99516.56;5152241;27;20393;-63
2022/07/07 05:28:14;;;;;;;7.68;3.28;;;;;;;22.65;42.15;99512.03;5133813;27;20043;-63
2022/07/07 05:30:41;;;;;;;4.32;2.95;;;;;;;22.67;41.93;99512.81;5152611;27;20111;-63
2022/07/07 05:33:08;;;;;;;4.53;2.97;;;;;;;22.69;41.91;99510.94;5149429;27;20074;-63
2022/07/07 05:35:35;;;;;;;3.90;2.80;;;;;;;22.70;41.72;99515.28;5152350;27;20045;-62
2022/07/07 05:38:02;;;;;;;6.35;3.00;;;;;;;22.74;41.70;99508.88;5152404;27;20045;-63
2022/07/07 05:40:31;;;;;;;4.10;2.85;;;;;;;22.77;41.85;99508.75;5151265;27;20098;-63
2022/07/07 05:42:57;;;;;;;5.47;2.90;;;;;;;22.80;41.75;99516.56;5152616;27;20409;-63
2022/07/07 05:45:24;;;;;;;5.13;3.00;;;;;;;22.81;41.74;99505.84;5150500;27;20047;-63
2022/07/07 05:47:51;;;;;;;4.55;2.90;;;;;;;22.86;41.73;99500.28;5151849;27;20082;-63
2022/07/07 05:50:18;;;;;;;5.43;3.22;;;;;;;22.89;41.56;99505.44;5134243;27;20043;-62
2022/07/07 05:52:45;;;;;;;5.10;2.85;;;;;;;22.90;41.41;99498.34;5153847;27;20408;-62
2022/07/07 05:55:12;;;;;;;6.57;3.28;;;;;;;22.91;41.27;99495.56;5155997;27;20043;-63
2022/07/07 05:57:41;;;;;;;4.28;2.88;;;;;;;22.95;41.30;99491.84;5137773;27;20039;-63
2022/07/07 06:00:09;;;;;;;4.65;3.03;;;;;;;22.98;41.20;99494.31;5154218;27;20038;-64
2022/07/07 06:02:35;;;;;;;4.80;3.00;;;;;;;23.03;41.17;99496.78;5156390;27;20042;-63
2022/07/07 06:05:02;;;;;;;6.53;3.40;;;;;;;23.07;41.20;99495.69;5156421;27;20095;-63
2022/07/07 06:07:29;;;;;;;5.45;2.90;;;;;;;23.11;41.24;99499.00;5156711;27;20039;-62
2022/07/07 06:09:56;;;;;;;5.20;2.72;;;;;;;23.17;41.12;99496.03;5137828;27;20082;-62
2022/07/07 06:12:23;;;;;;;4.93;2.95;;;;;;;23.22;41.00;99503.75;5155442;27;20039;-63
2022/07/07 06:14:51;;;;;;;5.28;3.08;;;;;;;23.28;41.12;99493.63;5155096;27;20046;-63
2022/07/07 06:17:18;;;;;;;6.80;3.10;;;;;;;23.33;40.59;99496.91;5155895;27;20082;-63
2022/07/07 06:19:45;;;;;;;5.80;2.92;;;;;;;23.39;40.44;99501.03;5156309;27;20183;-63
2022/07/07 06:22:11;;;;;;;4.55;3.03;;;;;;;23.44;40.58;99506.09;5155089;27;20089;-63
2022/07/07 06:24:41;;;;;;;4.28;2.90;;;;;;;23.50;40.43;99503.97;5155222;27;20521;-63
2022/07/07 06:27:08;;;;;;;4.82;2.70;;;;;;;23.55;40.22;99506.38;5135560;27;20046;-62
2022/07/07 06:29:34;;;;;;;5.28;3.00;;;;;;;23.57;39.90;99493.84;5155960;27;20150;-62
2022/07/07 06:32:06;;;;;;;6.75;2.83;;;;;;;23.62;39.90;99497.13;5142195;27;20043;-63
2022/07/07 06:34:33;;;;;;;5.95;2.88;;;;;;;23.67;39.69;99491.53;5152934;27;20093;-62
2022/07/07 06:37:01;;;;;;;4.93;2.75;;;;;;;23.70;39.41;99491.38;5148548;27;20450;-63
2022/07/07 06:39:27;;;;;;;4.40;2.90;;;;;;;23.76;39.76;99496.34;5134772;27;20047;-64
2022/07/07 06:41:54;;;;;;;6.13;2.53;;;;;;;23.80;39.21;99491.75;5149999;27;20087;-65
2022/07/07 06:44:21;;;;;;;5.70;2.95;;;;;;;23.82;39.51;99492.50;5153885;27;20047;-65
2022/07/07 06:46:48;;;;;;;6.45;2.72;;;;;;;23.82;39.12;99487.19;5136893;27;20043;-64
2022/07/07 06:49:16;;;;;;;4.72;2.70;;;;;;;23.87;39.10;99482.47;5154481;27;20574;-64
2022/07/07 06:51:43;;;;;;;5.20;2.88;;;;;;;23.91;39.40;99481.34;5154733;27;20603;-64
2022/07/07 06:54:09;;;;;;;7.60;2.92;;;;;;;23.94;38.99;99481.16;5152196;27;20054;-64
2022/07/07 06:56:36;;;;;;;5.38;2.60;;;;;;;23.97;38.60;99478.34;5154372;27;20095;-64
2022/07/07 06:59:03;;;;;;;5.93;2.70;;;;;;;23.95;37.86;99480.22;5153102;27;20103;-63
2022/07/07 07:01:30;;;;;;;6.15;2.55;;;;;;;23.98;37.74;99474.72;5154916;27;20493;-63
2022/07/07 07:03:57;;;;;;;3.08;2.33;;;;;;;23.99;37.46;99476.44;5154619;27;20038;-63
2022/07/07 07:06:28;;;;;;;5.65;2.60;;;;;;;23.99;35.87;99465.78;5154858;27;20100;-63
2022/07/07 07:08:54;;;;;;;3.22;2.30;;;;;;;23.98;35.31;99466.72;5155220;27;20042;-62
2022/07/07 07:11:21;;;;;;;4.68;2.42;;;;;;;24.02;35.38;99460.31;5147307;27;20123;-63
2022/07/07 07:13:48;;;;;;;4.32;2.65;;;;;;;24.07;35.31;99457.38;5135406;27;20043;-63
2022/07/07 07:16:15;;;;;;;3.50;2.35;;;;;;;24.10;35.14;99458.03;5134325;27;20043;-63
2022/07/07 07:18:42;;;;;;;4.80;2.50;;;;;;;24.11;35.30;99457.09;5134233;27;20528;-63
2022/07/07 07:21:10;;;;;;;4.50;2.58;;;;;;;24.17;35.63;99450.53;5135374;27;20070;-64
2022/07/07 07:23:38;;;;;;;7.28;2.50;;;;;;;24.24;35.75;99459.03;5127792;27;20042;-63
2022/07/07 07:26:05;;;;;;;5.75;2.40;;;;;;;24.29;36.05;99465.81;5154218;27;20076;-63
2022/07/07 07:28:33;;;;;;;3.75;2.45;;;;;;;24.28;36.22;99453.44;5154321;27;20081;-62
2022/07/07 07:31:00;;;;;;;5.32;2.58;;;;;;;24.34;36.41;99457.53;5154449;27;20489;-63
2022/07/07 07:33:27;;;;;;;6.13;2.70;;;;;;;24.36;36.33;99460.97;5155216;27;20049;-62
2022/07/07 07:35:53;;;;;;;4.68;2.30;;;;;;;24.39;36.11;99466.13;5135623;27;20047;-63
2022/07/07 07:38:20;;;;;;;4.50;2.55;;;;;;;24.41;36.17;99458.91;5154801;27;20454;-63
2022/07/07 07:40:48;;;;;;;6.63;2.60;;;;;;;24.48;35.66;99459.38;5154744;27;20086;-63
2022/07/07 07:43:15;;;;;;;5.25;2.50;;;;;;;24.50;35.90;99461.00;5136483;27;20046;-63
2022/07/07 07:45:42;;;;;;;4.22;2.45;;;;;;;24.53;35.75;99463.53;5134350;27;20055;-62
2022/07/07 07:48:09;;;;;;;4.93;2.35;;;;;;;24.60;35.87;99452.50;5153985;27;20038;-63
2022/07/07 07:50:36;;;;;;;4.45;2.40;;;;;;;24.65;36.04;99455.75;5152619;27;20047;-62
2022/07/07 07:53:04;;;;;;;4.93;2.53;;;;;;;24.71;35.86;99458.88;5153939;27;20386;-64
2022/07/07 07:55:31;;;;;;;5.22;2.40;;;;;;;24.77;35.44;99461.16;5140307;27;20038;-63
2022/07/07 07:57:59;;;;;;;4.18;2.33;;;;;;;24.76;33.90;99458.63;5152423;27;20511;-64
2022/07/07 08:00:26;;;;;;;6.78;2.50;;;;;;;24.84;35.41;99451.00;5154496;27;20066;-64
2022/07/07 08:02:52;;;;;;;6.20;2.67;;;;;;;24.84;34.05;99451.00;5153956;27;20107;-70
2022/07/07 08:05:19;;;;;;;4.63;2.47;;;;;;;24.88;34.68;99460.50;5153191;27;20536;-70
2022/07/07 08:07:46;;;;;;;8.52;4.20;;;;;;;24.85;34.29;99450.03;5151704;27;20081;-71
2022/07/07 08:10:14;;;;;;;4.85;2.75;;;;;;;24.80;33.87;99454.81;5152895;27;20042;-71
2022/07/07 08:12:41;;;;;;;7.28;3.47;;;;;;;24.95;34.64;99442.31;5151492;27;20042;-70
2022/07/07 08:15:10;;;;;;;6.47;2.97;;;;;;;25.03;34.89;99444.50;5163561;27;20063;-70
2022/07/07 08:17:37;;;;;;;6.68;2.78;;;;;;;25.10;34.44;99456.50;5148982;27;20579;-69
2022/07/07 08:20:05;;;;;;;5.70;2.85;;;;;;;25.13;36.20;99451.84;5146879;27;20070;-57
2022/07/07 08:22:32;;;;;;;11.63;3.42;;;;;;;25.13;34.60;99446.53;5133486;27;20050;-57
2022/07/07 08:24:58;;;;;;;11.50;4.25;;;;;;;25.17;34.72;99441.84;5119495;27;20095;-56
2022/07/07 08:27:25;;;;;;;7.97;2.70;;;;;;;25.05;32.22;99438.16;5142300;27;20038;-56
2022/07/07 08:29:52;;;;;;;6.97;3.20;;;;;;;25.15;32.81;99433.09;5152740;27;20152;-57
2022/07/07 08:32:20;;;;;;;6.15;2.90;;;;;;;25.22;32.11;99434.47;5174335;27;20042;-57
2022/07/07 08:34:47;;;;;;;3.65;2.60;;;;;;;25.27;31.67;99439.50;5150721;27;20090;-57
2022/07/07 08:37:14;;;;;;;5.90;2.53;;;;;;;25.28;29.88;99434.06;5153178;27;20091;-57
2022/07/07 08:39:41;;;;;;;4.63;2.50;;;;;;;25.32;32.38;99432.91;5153301;27;20385;-57
2022/07/07 08:42:09;;;;;;;4.57;2.25;;;;;;;25.35;29.65;99421.19;5152716;27;20047;-57
2022/07/07 08:44:35;;;;;;;7.13;2.20;;;;;;;25.39;31.18;99425.34;5157713;27;20042;-56
2022/07/07 08:47:02;;;;;;;4.93;2.20;;;;;;;25.45;30.77;99424.97;5174108;27;20046;-57
2022/07/07 08:49:30;;;;;;;3.17;2.10;;;;;;;25.50;30.36;99416.69;5165327;27;20099;-57
2022/07/07 08:51:57;;;;;;;3.47;2.30;;;;;;;25.49;28.25;99425.63;5153513;27;20091;-56
2022/07/07 08:54:25;;;;;;;7.35;2.20;;;;;;;25.52;31.34;99415.63;5152767;27;20643;-55
2022/07/07 08:56:52;;;;;;;2.85;2.03;;;;;;;25.58;29.42;99411.69;5152856;27;20623;-56
2022/07/07 08:59:19;;;;;;;4.63;2.20;;;;;;;25.68;28.61;99419.94;5153349;27;20474;-56
2022/07/07 09:01:53;;;;;;;3.70;2.30;;;;;;;25.67;29.16;99419.09;5153003;27;20111;-56
2022/07/07 09:04:20;;;;;;;18.38;6.57;;;;;;;25.75;30.94;99418.59;5153579;27;20074;-55
2022/07/07 09:06:54;;;;;;;11.13;3.45;;;;;;;25.67;27.56;99416.44;5134389;27;20058;-58
2022/07/07 09:09:27;;;;;;;3.90;2.50;;;;;;;25.67;27.13;99415.59;5153564;27;20153;-58
2022/07/07 09:12:00;;;;;;;5.73;2.67;;;;;;;25.71;28.33;99419.75;5152768;27;20038;-58
2022/07/07 09:14:27;;;;;;;5.55;2.58;;;;;;;25.71;29.00;99412.59;5152999;27;20042;-59
2022/07/07 09:16:53;;;;;;;3.85;2.30;;;;;;;25.63;27.53;99414.94;5152748;27;20488;-58
2022/07/07 09:19:20;;;;;;;2.85;2.30;;;;;;;25.64;27.96;99413.97;5152644;27;20064;-58
2022/07/07 09:21:47;;;;;;;8.18;2.75;;;;;;;25.67;28.62;99404.91;5152783;27;20475;-58
2022/07/07 09:24:16;;;;;;;5.93;2.60;;;;;;;25.73;29.21;99408.03;5152885;27;20103;-55
2022/07/07 09:26:44;;;;;;;4.45;2.50;;;;;;;25.77;29.50;99414.00;5153769;27;20074;-56
2022/07/07 09:29:13;;;;;;;6.57;2.30;;;;;;;25.80;29.85;99411.13;5153900;27;20051;-55
2022/07/07 09:31:53;;;;;;;5.32;2.40;;;;;;;25.83;30.40;99412.75;5152465;27;20072;-55
2022/07/07 09:34:21;;;;;;;5.38;2.30;;;;;;;25.85;30.41;99413.50;5168514;27;20087;-55
2022/07/07 09:39:43;;;;;;;6.85;2.63;;;;;;;25.90;31.02;99403.34;5140227;27;20045;-55
2022/07/07 09:42:20;;;;;;;5.05;2.42;;;;;;;25.93;31.21;99404.03;5136126;27;20071;-55
2022/07/07 09:44:48;;;;;;;4.60;2.53;;;;;;;25.93;31.43;99406.72;5136333;27;20074;-55
2022/07/07 09:47:15;;;;;;;3.63;2.20;;;;;;;25.96;31.54;99402.13;5135762;27;20067;-56
2022/07/07 09:49:43;;;;;;;8.32;2.70;;;;;;;25.97;31.83;99403.84;5117130;27;20104;-55
2022/07/07 09:52:16;;;;;;;5.72;2.42;;;;;;;25.98;31.75;99400.22;5135826;27;20057;-56
2022/07/07 09:54:48;;;;;;;4.95;2.35;;;;;;;25.97;32.03;99394.03;5136110;27;20051;-56
2022/07/07 09:57:15;;;;;;;10.10;2.58;;;;;;;25.99;31.93;99397.44;5136128;27;20051;-55
2022/07/07 09:59:42;;;;;;;5.28;2.20;;;;;;;25.99;31.63;99401.94;5118102;27;20047;-55
2022/07/07 10:02:10;;;;;;;6.57;2.35;;;;;;;26.00;31.86;99391.16;5136011;27;20074;-55
2022/07/07 10:04:37;;;;;;;5.15;2.20;;;;;;;26.00;32.14;99399.16;5136011;27;20090;-56
2022/07/07 10:07:04;;;;;;;4.35;2.20;;;;;;;26.01;31.86;99402.69;5135732;27;20100;-55
2022/07/07 10:09:31;;;;;;;5.18;2.50;;;;;;;26.01;31.99;99395.53;5135718;27;20450;-55
2022/07/07 10:11:59;;;;;;;9.68;2.25;;;;;;;26.02;32.05;99401.75;5135786;27;20088;-55
2022/07/07 10:14:29;;;;;;;5.18;2.35;;;;;;;26.03;32.42;99398.94;5135859;27;20079;-55
2022/07/07 10:16:56;;;;;;;4.30;2.20;;;;;;;26.04;31.74;99397.16;5135433;27;20088;-55
2022/07/07 10:19:24;;;;;;;3.85;2.35;;;;;;;26.04;31.68;99397.16;5135703;27;20489;-55
2022/07/07 10:21:51;;;;;;;6.40;2.25;;;;;;;26.04;31.37;99395.31;5135407;27;20067;-55
2022/07/07 10:24:19;;;;;;;5.05;2.35;;;;;;;26.04;32.04;99390.00;5135629;27;20095;-56
2022/07/07 10:26:49;;;;;;;6.53;2.70;;;;;;;26.05;32.57;99390.84;5135206;27;20059;-55
2022/07/07 10:29:17;;;;;;;4.53;2.30;;;;;;;26.05;32.26;99389.00;5135380;27;20794;-55
2022/07/07 10:31:50;;;;;;;3.53;2.22;;;;;;;26.05;32.18;99386.34;5135307;27;20504;-55
2022/07/07 10:34:17;;;;;;;5.25;2.40;;;;;;;26.06;32.53;99388.06;5135179;27;20679;-55
2022/07/07 10:37:03;;;;;;;5.18;2.50;;;;;;;26.06;31.85;99385.41;5135474;27;20448;-56
2022/07/07 10:39:33;;;;;;;4.05;2.40;;;;;;;26.06;32.09;99389.88;5134001;27;20568;-55
2022/07/07 10:42:04;;;;;;;2.83;2.40;;;;;;;26.06;31.72;99388.06;5135200;27;20400;-55
2022/07/07 10:44:33;;;;;;;4.07;2.33;;;;;;;26.06;31.45;99388.06;5134857;27;20049;-55
2022/07/07 10:47:00;;;;;;;3.15;2.22;;;;;;;26.07;31.85;99384.41;5134919;27;20055;-55
2022/07/07 10:49:37;;;;;;;3.53;2.33;;;;;;;26.08;32.19;99382.63;5135060;27;20092;-56
2022/07/07 10:52:10;;;;;;;3.28;2.45;;;;;;;26.08;32.22;99383.47;5134917;27;20404;-56
2022/07/07 10:54:38;;;;;;;5.55;2.45;;;;;;;26.08;31.97;99375.47;5134866;27;20071;-55
2022/07/07 10:57:13;;;;;;;4.97;2.50;;;;;;;26.09;31.94;99376.31;5134813;27;20043;-55
2022/07/07 11:00:08;;;;;;;3.13;2.40;;;;;;;26.09;31.67;99370.97;5134231;27;20554;-55
2022/07/07 11:02:36;;;;;;;3.08;2.33;;;;;;;26.08;31.92;99375.47;5134730;27;20050;-55
2022/07/07 11:05:03;;;;;;;3.70;2.50;;;;;;;26.08;32.28;99372.78;5134618;27;20111;-55
2022/07/07 11:07:30;;;;;;;7.25;2.50;;;;;;;26.09;31.75;99365.63;5134672;27;20135;-55
2022/07/07 11:09:57;;;;;;;5.47;2.40;;;;;;;26.09;31.51;99369.19;5134743;27;20039;-55
2022/07/07 11:12:38;;;;;;;6.38;2.72;;;;;;;26.09;31.24;99363.84;5134422;27;20493;-55
2022/07/07 11:15:37;;;;;;;2.88;2.30;;;;;;;26.09;31.00;99345.16;5134664;27;20047;-55
2022/07/07 11:18:13;;;;;;;3.40;2.35;;;;;;;26.10;31.40;99357.53;5134294;27;20043;-56
2022/07/07 11:20:58;;;;;;;5.00;2.50;;;;;;;26.11;31.96;99353.03;5134643;27;20047;-55
2022/07/07 11:23:26;;;;;;;3.22;2.40;;;;;;;26.11;32.27;99353.91;5134210;27;20485;-55
2022/07/07 11:25:56;;;;;;;3.28;2.50;;;;;;;26.10;31.99;99349.50;5134146;27;20621;-56
2022/07/07 11:28:24;;;;;;;4.50;2.30;;;;;;;26.10;31.60;99346.00;5134907;27;20039;-55
2022/07/07 11:31:00;;;;;;;5.30;2.50;;;;;;;26.10;31.24;99341.50;5116005;27;20043;-56
2022/07/07 11:33:27;;;;;;;3.63;2.47;;;;;;;26.10;31.52;99338.84;5134074;27;20083;-55
2022/07/07 11:35:54;;;;;;;4.15;2.28;;;;;;;26.11;31.76;99345.91;5134180;27;20167;-55
2022/07/07 11:38:21;;;;;;;4.80;2.63;;;;;;;26.11;32.10;99337.88;5134143;27;20553;-55
2022/07/07 11:40:47;;;;;;;4.53;2.50;;;;;;;26.11;32.02;99343.22;5132984;27;20147;-55